Etusivu
METAR-TAF:

METAR-TAF

Lentoasemat :

Adrar, Algeria

Leveyspiiri: 27-53N, Pituuspiiri: 000-17W, korkeus merenpinnasta: 263 m

Tämänhetkinen sää

Tämä raportti tehtiin 44 minuuttia sitten, kello 12.00 UTC
Tuuli 22 kn idästä/koillisesta
Lämpötila 25°C
Kosteus 26%
Ilmanpaine 1024 hPa
Näkyvyys: 9000 m
matalaa hiekkatuisku

METAR: DAUA 181200Z 07022KT 9000 DRSA NSC 25/04 Q1024

Aika: 13:44 (12:44 UTC)

Sääennuste

Tämä raportti tehtiin 1 tunti ja 44 minuuttia sitten, kello 11.00 UTC
Ennuste voimassa 18. päivästä klo 12 UTC - 19. päivään klo 12 UTC
Tuuli 20 kn idästä/koillisesta
Näkyvyys 10 km tai enemmän
ei pilviä alle 1500 m:ssä eikä cumulonimbus-pilviä
Todennäköisyys 30%
18. päivästä klo 12 UTC - 18. päivään klo 15 UTC
Näkyvyys: 5000 m
matalaa hiekkatuisku
Tulossa
18. päivästä klo 17 UTC - 18. päivään klo 20 UTC
Tuuli 10 kn koillisesta

TAF: DAUA 181100Z 1812/1912 06020KT CAVOK PROB30 1812/1815 5000 DRSA BECMG 1817/1820 04010KT

Säähavainnot ja -ennusteet yli 4000 lentoasemalta (METAR- ja TAF-raportit).

Käytössä olevat sääasemat on merkitty karttaan keltaisilla ja punaisilla pisteillä.

Aseta hiiri pisteen päälle nähdäksesi sääaseman nimen.

Klikkaa sitten nähdäksesi säähavainnot ja -ennusteet.

Kartan vaihtaminen: klikkaa mustalla rastilla varustettuja vihreitä pisteitä, niin voit zoomata sisään; viivalla varustettua vihreää pistettä, niin voit zoomata ulos tai vihreitä nuolia, niin pääset viereisille kartoille.


METAR-TAF: